Weather at Grenoble-Isère Airport

Public forecast

Using degrees Celsius for public forecast. Weather courtesy of forecast.io.

Current aviation weather report (METAR) for Grenoble-Isère Airport

2024/04/24 16:00 (retrieved 31 minutes ago)

LFLS 241600Z AUTO 35009KT 320V020 9999 FEW043 BKN056 OVC070 07/00 Q1013 TEMPO SHRA SCT040TCU

Aviation forecast (TAF) for Grenoble-Isère Airport

2024/04/24 15:21 (retrieved 1 hour ago)

TAF LFLS 241400Z 2415/2515 36010KT 9999 BKN063 PROB40 TEMPO 2415/2421 SHRA SCT040TCU BECMG 2422/2424 09006KT CAVOK PROB30 TEMPO 2502/2506 2000 MIFG